sensor_id;sensor_type;location;lat;lon;timestamp;temperature;humidity
35668;DHT22;22158;59.280;17.806;2022-11-20T00:01:03;0.40;99.90
35668;DHT22;22158;59.280;17.806;2022-11-20T00:03:29;0.40;99.90
35668;DHT22;22158;59.280;17.806;2022-11-20T00:06:09;0.30;99.90
35668;DHT22;22158;59.280;17.806;2022-11-20T00:08:35;0.30;99.90
35668;DHT22;22158;59.280;17.806;2022-11-20T00:11:09;0.30;99.90
35668;DHT22;22158;59.280;17.806;2022-11-20T00:13:36;0.40;99.90
35668;DHT22;22158;59.280;17.806;2022-11-20T00:16:03;0.30;99.90
35668;DHT22;22158;59.280;17.806;2022-11-20T00:18:29;0.30;99.90
35668;DHT22;22158;59.280;17.806;2022-11-20T00:21:07;0.40;99.90
35668;DHT22;22158;59.280;17.806;2022-11-20T00:23:33;0.30;99.90
35668;DHT22;22158;59.280;17.806;2022-11-20T00:26:06;0.30;99.90
35668;DHT22;22158;59.280;17.806;2022-11-20T00:28:33;0.30;99.90
35668;DHT22;22158;59.280;17.806;2022-11-20T00:31:03;0.30;99.90
35668;DHT22;22158;59.280;17.806;2022-11-20T00:33:30;0.30;99.90
35668;DHT22;22158;59.280;17.806;2022-11-20T00:36:03;0.30;99.90
35668;DHT22;22158;59.280;17.806;2022-11-20T00:38:30;0.30;99.90
35668;DHT22;22158;59.280;17.806;2022-11-20T00:41:00;0.20;99.90
35668;DHT22;22158;59.280;17.806;2022-11-20T00:43:27;0.30;99.90
35668;DHT22;22158;59.280;17.806;2022-11-20T00:46:00;0.20;99.90
35668;DHT22;22158;59.280;17.806;2022-11-20T00:48:26;0.20;99.90
35668;DHT22;22158;59.280;17.806;2022-11-20T00:50:52;0.20;99.90
35668;DHT22;22158;59.280;17.806;2022-11-20T00:53:18;0.20;99.90
35668;DHT22;22158;59.280;17.806;2022-11-20T00:55:55;0.20;99.90
35668;DHT22;22158;59.280;17.806;2022-11-20T00:58:22;0.10;99.90
35668;DHT22;22158;59.280;17.806;2022-11-20T01:00:48;0.10;99.90
35668;DHT22;22158;59.280;17.806;2022-11-20T01:03:16;0.10;99.90
35668;DHT22;22158;59.280;17.806;2022-11-20T01:05:42;0.10;99.90
35668;DHT22;22158;59.280;17.806;2022-11-20T01:08:08;0.10;99.90
35668;DHT22;22158;59.280;17.806;2022-11-20T01:10:33;0.10;99.90
35668;DHT22;22158;59.280;17.806;2022-11-20T01:12:59;0.10;99.90
35668;DHT22;22158;59.280;17.806;2022-11-20T01:15:43;0.10;99.90
35668;DHT22;22158;59.280;17.806;2022-11-20T01:18:08;0.10;99.90
35668;DHT22;22158;59.280;17.806;2022-11-20T01:20:37;0.10;99.90
35668;DHT22;22158;59.280;17.806;2022-11-20T01:23:03;0.10;99.90
35668;DHT22;22158;59.280;17.806;2022-11-20T01:25:29;0.20;99.90
35668;DHT22;22158;59.280;17.806;2022-11-20T01:27:55;0.20;99.90
35668;DHT22;22158;59.280;17.806;2022-11-20T01:30:21;0.10;99.90
35668;DHT22;22158;59.280;17.806;2022-11-20T01:32:46;0.10;99.90
35668;DHT22;22158;59.280;17.806;2022-11-20T01:35:12;0.10;99.90
35668;DHT22;22158;59.280;17.806;2022-11-20T01:37:38;0.10;99.90
35668;DHT22;22158;59.280;17.806;2022-11-20T01:40:04;0.10;99.90
35668;DHT22;22158;59.280;17.806;2022-11-20T01:42:30;0.10;99.90
35668;DHT22;22158;59.280;17.806;2022-11-20T01:45:50;0.10;99.90
35668;DHT22;22158;59.280;17.806;2022-11-20T01:48:19;0.10;99.90
35668;DHT22;22158;59.280;17.806;2022-11-20T01:50:45;0.10;99.90
35668;DHT22;22158;59.280;17.806;2022-11-20T01:53:15;0.10;99.90
35668;DHT22;22158;59.280;17.806;2022-11-20T01:55:44;0.10;99.90
35668;DHT22;22158;59.280;17.806;2022-11-20T01:58:11;0.10;99.90
35668;DHT22;22158;59.280;17.806;2022-11-20T02:00:38;0.10;99.90
35668;DHT22;22158;59.280;17.806;2022-11-20T02:03:12;0.10;99.90
35668;DHT22;22158;59.280;17.806;2022-11-20T02:05:46;0.10;99.90
35668;DHT22;22158;59.280;17.806;2022-11-20T02:08:13;0.10;99.90
35668;DHT22;22158;59.280;17.806;2022-11-20T02:10:39;0.10;99.90
35668;DHT22;22158;59.280;17.806;2022-11-20T02:13:05;0.10;99.90
35668;DHT22;22158;59.280;17.806;2022-11-20T02:15:50;0.10;99.90
35668;DHT22;22158;59.280;17.806;2022-11-20T02:18:18;0.10;99.90
35668;DHT22;22158;59.280;17.806;2022-11-20T02:20:47;0.10;99.90
35668;DHT22;22158;59.280;17.806;2022-11-20T02:25:43;0.00;99.90
35668;DHT22;22158;59.280;17.806;2022-11-20T02:28:09;0.00;99.90
35668;DHT22;22158;59.280;17.806;2022-11-20T02:30:35;0.00;99.90
35668;DHT22;22158;59.280;17.806;2022-11-20T02:33:01;0.00;99.90
35668;DHT22;22158;59.280;17.806;2022-11-20T02:37:54;0.10;99.90
35668;DHT22;22158;59.280;17.806;2022-11-20T02:40:21;0.10;99.90
35668;DHT22;22158;59.280;17.806;2022-11-20T02:42:47;0.10;99.90
35668;DHT22;22158;59.280;17.806;2022-11-20T02:45:14;0.00;99.90
35668;DHT22;22158;59.280;17.806;2022-11-20T02:47:39;0.00;99.90
35668;DHT22;22158;59.280;17.806;2022-11-20T02:50:05;0.00;99.90
35668;DHT22;22158;59.280;17.806;2022-11-20T02:52:31;0.00;99.90
35668;DHT22;22158;59.280;17.806;2022-11-20T02:54:57;0.00;99.90
35668;DHT22;22158;59.280;17.806;2022-11-20T02:57:22;0.10;99.90
35668;DHT22;22158;59.280;17.806;2022-11-20T02:59:48;0.00;99.90
35668;DHT22;22158;59.280;17.806;2022-11-20T03:02:14;0.00;99.90
35668;DHT22;22158;59.280;17.806;2022-11-20T03:04:39;0.00;99.90
35668;DHT22;22158;59.280;17.806;2022-11-20T03:07:05;0.00;99.90
35668;DHT22;22158;59.280;17.806;2022-11-20T03:09:31;0.10;99.90
35668;DHT22;22158;59.280;17.806;2022-11-20T03:11:56;0.00;99.90
35668;DHT22;22158;59.280;17.806;2022-11-20T03:14:22;0.00;99.90
35668;DHT22;22158;59.280;17.806;2022-11-20T03:16:48;0.00;99.90
35668;DHT22;22158;59.280;17.806;2022-11-20T03:19:13;0.00;99.90
35668;DHT22;22158;59.280;17.806;2022-11-20T03:21:39;0.00;99.90
35668;DHT22;22158;59.280;17.806;2022-11-20T03:24:05;0.00;99.90
35668;DHT22;22158;59.280;17.806;2022-11-20T03:26:31;0.00;99.90
35668;DHT22;22158;59.280;17.806;2022-11-20T03:28:59;0.00;99.90
35668;DHT22;22158;59.280;17.806;2022-11-20T03:31:30;0.00;99.90
35668;DHT22;22158;59.280;17.806;2022-11-20T03:33:57;0.00;99.90
35668;DHT22;22158;59.280;17.806;2022-11-20T03:36:23;0.00;99.90
35668;DHT22;22158;59.280;17.806;2022-11-20T03:38:49;0.00;99.90
35668;DHT22;22158;59.280;17.806;2022-11-20T03:41:21;0.00;99.90
35668;DHT22;22158;59.280;17.806;2022-11-20T03:43:49;0.00;99.90
35668;DHT22;22158;59.280;17.806;2022-11-20T03:46:15;0.00;99.90
35668;DHT22;22158;59.280;17.806;2022-11-20T03:48:41;0.00;99.90
35668;DHT22;22158;59.280;17.806;2022-11-20T03:53:33;0.00;99.90
35668;DHT22;22158;59.280;17.806;2022-11-20T03:55:58;0.00;99.90
35668;DHT22;22158;59.280;17.806;2022-11-20T03:58:24;0.00;99.90
35668;DHT22;22158;59.280;17.806;2022-11-20T04:00:50;0.00;99.90
35668;DHT22;22158;59.280;17.806;2022-11-20T04:03:15;0.00;99.90
35668;DHT22;22158;59.280;17.806;2022-11-20T04:05:41;0.00;99.90
35668;DHT22;22158;59.280;17.806;2022-11-20T04:08:07;0.00;99.90
35668;DHT22;22158;59.280;17.806;2022-11-20T04:10:33;0.00;99.90
35668;DHT22;22158;59.280;17.806;2022-11-20T04:12:58;0.00;99.90
35668;DHT22;22158;59.280;17.806;2022-11-20T04:15:24;0.00;99.90
35668;DHT22;22158;59.280;17.806;2022-11-20T04:17:49;0.00;99.90
35668;DHT22;22158;59.280;17.806;2022-11-20T04:20:15;0.00;99.90
35668;DHT22;22158;59.280;17.806;2022-11-20T04:22:41;0.00;99.90
35668;DHT22;22158;59.280;17.806;2022-11-20T04:25:07;-0.10;99.90
35668;DHT22;22158;59.280;17.806;2022-11-20T04:27:32;0.00;99.90
35668;DHT22;22158;59.280;17.806;2022-11-20T04:29:58;0.00;99.90
35668;DHT22;22158;59.280;17.806;2022-11-20T04:32:24;0.00;99.90
35668;DHT22;22158;59.280;17.806;2022-11-20T04:34:49;0.00;99.90
35668;DHT22;22158;59.280;17.806;2022-11-20T04:37:15;0.00;99.90
35668;DHT22;22158;59.280;17.806;2022-11-20T04:39:41;-0.10;99.90
35668;DHT22;22158;59.280;17.806;2022-11-20T04:42:08;-0.10;99.90
35668;DHT22;22158;59.280;17.806;2022-11-20T04:44:53;0.00;99.90
35668;DHT22;22158;59.280;17.806;2022-11-20T04:47:19;0.00;99.90
35668;DHT22;22158;59.280;17.806;2022-11-20T04:49:44;0.00;99.90
35668;DHT22;22158;59.280;17.806;2022-11-20T04:52:10;0.00;99.90
35668;DHT22;22158;59.280;17.806;2022-11-20T04:54:36;0.00;99.90
35668;DHT22;22158;59.280;17.806;2022-11-20T04:57:01;0.00;99.90
35668;DHT22;22158;59.280;17.806;2022-11-20T04:59:27;0.00;99.90
35668;DHT22;22158;59.280;17.806;2022-11-20T05:01:52;0.10;99.90
35668;DHT22;22158;59.280;17.806;2022-11-20T05:04:18;0.10;99.90
35668;DHT22;22158;59.280;17.806;2022-11-20T05:06:44;0.10;99.90
35668;DHT22;22158;59.280;17.806;2022-11-20T05:09:11;0.10;99.90
35668;DHT22;22158;59.280;17.806;2022-11-20T05:11:37;0.10;99.90
35668;DHT22;22158;59.280;17.806;2022-11-20T05:14:02;0.10;99.90
35668;DHT22;22158;59.280;17.806;2022-11-20T05:16:28;0.10;99.90
35668;DHT22;22158;59.280;17.806;2022-11-20T05:18:54;0.10;99.90
35668;DHT22;22158;59.280;17.806;2022-11-20T05:21:20;0.10;99.90
35668;DHT22;22158;59.280;17.806;2022-11-20T05:23:46;0.10;99.90
35668;DHT22;22158;59.280;17.806;2022-11-20T05:26:20;0.20;99.90
35668;DHT22;22158;59.280;17.806;2022-11-20T05:28:47;0.20;99.90
35668;DHT22;22158;59.280;17.806;2022-11-20T05:31:21;0.20;99.90
35668;DHT22;22158;59.280;17.806;2022-11-20T05:33:47;0.10;99.90
35668;DHT22;22158;59.280;17.806;2022-11-20T05:36:14;0.20;99.90
35668;DHT22;22158;59.280;17.806;2022-11-20T05:38:41;0.10;99.90
35668;DHT22;22158;59.280;17.806;2022-11-20T05:41:17;0.10;99.90
35668;DHT22;22158;59.280;17.806;2022-11-20T05:43:45;0.20;99.90
35668;DHT22;22158;59.280;17.806;2022-11-20T05:46:13;0.20;99.90
35668;DHT22;22158;59.280;17.806;2022-11-20T05:48:41;0.20;99.90
35668;DHT22;22158;59.280;17.806;2022-11-20T05:51:10;0.10;99.90
35668;DHT22;22158;59.280;17.806;2022-11-20T05:53:36;0.10;99.90
35668;DHT22;22158;59.280;17.806;2022-11-20T05:56:04;0.10;99.90
35668;DHT22;22158;59.280;17.806;2022-11-20T05:58:31;0.10;99.90
35668;DHT22;22158;59.280;17.806;2022-11-20T06:01:24;0.10;99.90
35668;DHT22;22158;59.280;17.806;2022-11-20T06:03:50;0.10;99.90
35668;DHT22;22158;59.280;17.806;2022-11-20T06:06:17;0.10;99.90
35668;DHT22;22158;59.280;17.806;2022-11-20T06:08:43;0.10;99.90
35668;DHT22;22158;59.280;17.806;2022-11-20T06:11:11;0.00;99.90
35668;DHT22;22158;59.280;17.806;2022-11-20T06:13:37;0.00;99.90
35668;DHT22;22158;59.280;17.806;2022-11-20T06:16:03;0.00;99.90
35668;DHT22;22158;59.280;17.806;2022-11-20T06:18:30;0.10;99.90
35668;DHT22;22158;59.280;17.806;2022-11-20T06:21:07;0.10;99.90
35668;DHT22;22158;59.280;17.806;2022-11-20T06:23:34;0.10;99.90
35668;DHT22;22158;59.280;17.806;2022-11-20T06:26:12;0.10;99.90
35668;DHT22;22158;59.280;17.806;2022-11-20T06:28:38;0.10;99.90
35668;DHT22;22158;59.280;17.806;2022-11-20T06:31:05;0.10;99.90
35668;DHT22;22158;59.280;17.806;2022-11-20T06:33:32;0.10;99.90
35668;DHT22;22158;59.280;17.806;2022-11-20T06:36:01;0.00;99.90
35668;DHT22;22158;59.280;17.806;2022-11-20T06:38:27;0.10;99.90
35668;DHT22;22158;59.280;17.806;2022-11-20T06:40:53;0.00;99.90
35668;DHT22;22158;59.280;17.806;2022-11-20T06:43:19;0.00;99.90
35668;DHT22;22158;59.280;17.806;2022-11-20T06:45:45;0.00;99.90
35668;DHT22;22158;59.280;17.806;2022-11-20T06:48:10;0.10;99.90
35668;DHT22;22158;59.280;17.806;2022-11-20T06:50:37;0.00;99.90
35668;DHT22;22158;59.280;17.806;2022-11-20T06:53:03;0.00;99.90
35668;DHT22;22158;59.280;17.806;2022-11-20T06:55:30;0.10;99.90
35668;DHT22;22158;59.280;17.806;2022-11-20T06:57:56;0.10;99.90
35668;DHT22;22158;59.280;17.806;2022-11-20T07:00:21;0.10;99.90
35668;DHT22;22158;59.280;17.806;2022-11-20T07:02:47;0.10;99.90
35668;DHT22;22158;59.280;17.806;2022-11-20T07:05:12;0.10;99.90
35668;DHT22;22158;59.280;17.806;2022-11-20T07:07:38;0.10;99.90
35668;DHT22;22158;59.280;17.806;2022-11-20T07:10:04;0.10;99.90
35668;DHT22;22158;59.280;17.806;2022-11-20T07:12:30;0.10;99.90
35668;DHT22;22158;59.280;17.806;2022-11-20T07:14:55;0.10;99.90
35668;DHT22;22158;59.280;17.806;2022-11-20T07:17:22;0.10;99.90
35668;DHT22;22158;59.280;17.806;2022-11-20T07:19:47;0.10;99.90
35668;DHT22;22158;59.280;17.806;2022-11-20T07:22:13;0.20;99.90
35668;DHT22;22158;59.280;17.806;2022-11-20T07:24:39;0.20;99.90
35668;DHT22;22158;59.280;17.806;2022-11-20T07:27:05;0.20;99.90
35668;DHT22;22158;59.280;17.806;2022-11-20T07:29:31;0.20;99.90
35668;DHT22;22158;59.280;17.806;2022-11-20T07:31:57;0.20;99.90
35668;DHT22;22158;59.280;17.806;2022-11-20T07:34:23;0.20;99.90
35668;DHT22;22158;59.280;17.806;2022-11-20T07:36:48;0.20;99.90
35668;DHT22;22158;59.280;17.806;2022-11-20T07:39:14;0.20;99.90
35668;DHT22;22158;59.280;17.806;2022-11-20T07:41:40;0.20;99.90
35668;DHT22;22158;59.280;17.806;2022-11-20T07:44:05;0.20;99.90
35668;DHT22;22158;59.280;17.806;2022-11-20T07:46:31;0.30;99.90
35668;DHT22;22158;59.280;17.806;2022-11-20T07:48:57;0.30;99.90
35668;DHT22;22158;59.280;17.806;2022-11-20T07:51:22;0.30;99.90
35668;DHT22;22158;59.280;17.806;2022-11-20T07:53:51;0.30;99.90
35668;DHT22;22158;59.280;17.806;2022-11-20T07:56:16;0.30;99.90
35668;DHT22;22158;59.280;17.806;2022-11-20T07:58:42;0.30;99.90
35668;DHT22;22158;59.280;17.806;2022-11-20T08:01:08;0.40;99.90
35668;DHT22;22158;59.280;17.806;2022-11-20T08:03:34;0.40;99.90
35668;DHT22;22158;59.280;17.806;2022-11-20T08:06:03;0.40;99.90
35668;DHT22;22158;59.280;17.806;2022-11-20T08:08:29;0.40;99.90
35668;DHT22;22158;59.280;17.806;2022-11-20T08:10:57;0.40;99.90
35668;DHT22;22158;59.280;17.806;2022-11-20T08:13:43;0.40;99.90
35668;DHT22;22158;59.280;17.806;2022-11-20T08:16:27;0.40;99.90
35668;DHT22;22158;59.280;17.806;2022-11-20T08:18:53;0.40;99.90
35668;DHT22;22158;59.280;17.806;2022-11-20T08:21:19;0.40;99.90
35668;DHT22;22158;59.280;17.806;2022-11-20T08:23:44;0.40;99.90
35668;DHT22;22158;59.280;17.806;2022-11-20T08:26:10;0.30;99.90
35668;DHT22;22158;59.280;17.806;2022-11-20T08:28:36;0.30;99.90
35668;DHT22;22158;59.280;17.806;2022-11-20T08:31:02;0.30;99.90
35668;DHT22;22158;59.280;17.806;2022-11-20T08:33:29;0.40;99.90
35668;DHT22;22158;59.280;17.806;2022-11-20T08:35:59;0.40;99.90
35668;DHT22;22158;59.280;17.806;2022-11-20T08:38:25;0.40;99.90
35668;DHT22;22158;59.280;17.806;2022-11-20T08:40:50;0.40;99.90
35668;DHT22;22158;59.280;17.806;2022-11-20T08:43:35;0.40;99.90
35668;DHT22;22158;59.280;17.806;2022-11-20T08:46:00;0.40;99.90
35668;DHT22;22158;59.280;17.806;2022-11-20T08:48:26;0.40;99.90
35668;DHT22;22158;59.280;17.806;2022-11-20T08:50:52;0.40;99.90
35668;DHT22;22158;59.280;17.806;2022-11-20T08:53:17;0.40;99.90
35668;DHT22;22158;59.280;17.806;2022-11-20T08:55:43;0.40;99.90
35668;DHT22;22158;59.280;17.806;2022-11-20T08:58:08;0.50;99.90
35668;DHT22;22158;59.280;17.806;2022-11-20T09:00:34;0.50;99.90
35668;DHT22;22158;59.280;17.806;2022-11-20T09:03:00;0.50;99.90
35668;DHT22;22158;59.280;17.806;2022-11-20T09:05:26;0.50;99.90
35668;DHT22;22158;59.280;17.806;2022-11-20T09:07:56;0.50;99.90
35668;DHT22;22158;59.280;17.806;2022-11-20T09:10:22;0.50;99.90
35668;DHT22;22158;59.280;17.806;2022-11-20T09:12:51;0.60;99.90
35668;DHT22;22158;59.280;17.806;2022-11-20T09:15:18;0.60;99.90
35668;DHT22;22158;59.280;17.806;2022-11-20T09:17:54;0.60;99.90
35668;DHT22;22158;59.280;17.806;2022-11-20T09:20:20;0.60;99.90
35668;DHT22;22158;59.280;17.806;2022-11-20T09:22:46;0.60;99.90
35668;DHT22;22158;59.280;17.806;2022-11-20T09:25:12;0.70;99.90
35668;DHT22;22158;59.280;17.806;2022-11-20T09:27:38;0.70;99.90
35668;DHT22;22158;59.280;17.806;2022-11-20T09:30:04;0.70;99.90
35668;DHT22;22158;59.280;17.806;2022-11-20T09:32:30;0.70;99.90
35668;DHT22;22158;59.280;17.806;2022-11-20T09:34:55;0.70;99.90
35668;DHT22;22158;59.280;17.806;2022-11-20T09:37:21;0.70;99.90
35668;DHT22;22158;59.280;17.806;2022-11-20T09:39:46;0.70;99.90
35668;DHT22;22158;59.280;17.806;2022-11-20T09:42:34;0.70;99.90
35668;DHT22;22158;59.280;17.806;2022-11-20T09:45:20;0.80;99.90
35668;DHT22;22158;59.280;17.806;2022-11-20T09:55:49;0.80;99.90
35668;DHT22;22158;59.280;17.806;2022-11-20T09:58:39;0.80;99.90
35668;DHT22;22158;59.280;17.806;2022-11-20T10:01:16;0.70;99.90
35668;DHT22;22158;59.280;17.806;2022-11-20T10:06:18;0.70;99.90
35668;DHT22;22158;59.280;17.806;2022-11-20T10:08:51;0.70;99.90
35668;DHT22;22158;59.280;17.806;2022-11-20T10:11:32;0.70;99.90
35668;DHT22;22158;59.280;17.806;2022-11-20T10:14:20;0.70;99.90
35668;DHT22;22158;59.280;17.806;2022-11-20T10:19:20;0.70;99.90
35668;DHT22;22158;59.280;17.806;2022-11-20T10:32:43;0.70;99.90
35668;DHT22;22158;59.280;17.806;2022-11-20T10:35:41;0.80;99.90
35668;DHT22;22158;59.280;17.806;2022-11-20T10:38:17;0.80;99.90
35668;DHT22;22158;59.280;17.806;2022-11-20T10:40:49;0.80;99.90
35668;DHT22;22158;59.280;17.806;2022-11-20T10:43:17;0.80;99.90
35668;DHT22;22158;59.280;17.806;2022-11-20T10:48:26;0.70;99.90
35668;DHT22;22158;59.280;17.806;2022-11-20T10:54:03;0.70;99.90
35668;DHT22;22158;59.280;17.806;2022-11-20T10:56:41;0.70;99.90
35668;DHT22;22158;59.280;17.806;2022-11-20T11:01:58;0.70;99.90
35668;DHT22;22158;59.280;17.806;2022-11-20T11:06:51;0.70;99.90
35668;DHT22;22158;59.280;17.806;2022-11-20T11:09:29;0.70;99.90
35668;DHT22;22158;59.280;17.806;2022-11-20T11:11:57;0.70;99.90
35668;DHT22;22158;59.280;17.806;2022-11-20T11:14:23;0.70;99.90
35668;DHT22;22158;59.280;17.806;2022-11-20T11:16:57;0.70;99.90
35668;DHT22;22158;59.280;17.806;2022-11-20T11:19:23;0.70;99.90
35668;DHT22;22158;59.280;17.806;2022-11-20T11:21:53;0.60;99.90
35668;DHT22;22158;59.280;17.806;2022-11-20T11:24:22;0.60;99.90
35668;DHT22;22158;59.280;17.806;2022-11-20T11:27:10;0.70;99.90
35668;DHT22;22158;59.280;17.806;2022-11-20T11:29:36;0.70;99.90
35668;DHT22;22158;59.280;17.806;2022-11-20T11:32:28;0.70;99.90
35668;DHT22;22158;59.280;17.806;2022-11-20T11:34:59;0.70;99.90
35668;DHT22;22158;59.280;17.806;2022-11-20T11:37:32;0.70;99.90
35668;DHT22;22158;59.280;17.806;2022-11-20T11:39:58;0.70;99.90
35668;DHT22;22158;59.280;17.806;2022-11-20T11:42:24;0.70;99.90
35668;DHT22;22158;59.280;17.806;2022-11-20T11:44:57;0.70;99.90
35668;DHT22;22158;59.280;17.806;2022-11-20T11:55:49;0.70;99.90
35668;DHT22;22158;59.280;17.806;2022-11-20T12:01:03;0.80;99.90
35668;DHT22;22158;59.280;17.806;2022-11-20T12:03:39;0.80;99.90
35668;DHT22;22158;59.280;17.806;2022-11-20T12:06:14;0.80;99.90
35668;DHT22;22158;59.280;17.806;2022-11-20T12:17:02;0.80;99.90
35668;DHT22;22158;59.280;17.806;2022-11-20T12:19:33;0.80;99.90
35668;DHT22;22158;59.280;17.806;2022-11-20T12:43:29;0.80;99.90
35668;DHT22;22158;59.280;17.806;2022-11-20T12:46:29;0.70;99.90
35668;DHT22;22158;59.280;17.806;2022-11-20T12:57:04;0.60;99.90
35668;DHT22;22158;59.280;17.806;2022-11-20T13:00:08;0.60;99.90
35668;DHT22;22158;59.280;17.806;2022-11-20T13:05:34;0.60;99.90
35668;DHT22;22158;59.280;17.806;2022-11-20T13:08:03;0.60;99.90
35668;DHT22;22158;59.280;17.806;2022-11-20T13:10:46;0.60;99.90
35668;DHT22;22158;59.280;17.806;2022-11-20T13:16:10;0.60;99.90
35668;DHT22;22158;59.280;17.806;2022-11-20T13:18:39;0.60;99.90
35668;DHT22;22158;59.280;17.806;2022-11-20T13:21:19;0.60;99.90
35668;DHT22;22158;59.280;17.806;2022-11-20T13:23:45;0.60;99.90
35668;DHT22;22158;59.280;17.806;2022-11-20T13:26:20;0.60;99.90
35668;DHT22;22158;59.280;17.806;2022-11-20T13:28:59;0.60;99.90
35668;DHT22;22158;59.280;17.806;2022-11-20T13:31:33;0.60;99.90
35668;DHT22;22158;59.280;17.806;2022-11-20T13:34:03;0.60;99.90
35668;DHT22;22158;59.280;17.806;2022-11-20T13:36:29;0.60;99.90
35668;DHT22;22158;59.280;17.806;2022-11-20T13:38:57;0.60;99.90
35668;DHT22;22158;59.280;17.806;2022-11-20T13:41:34;0.70;99.90
35668;DHT22;22158;59.280;17.806;2022-11-20T13:44:10;0.70;99.90
35668;DHT22;22158;59.280;17.806;2022-11-20T13:46:45;0.70;99.90
35668;DHT22;22158;59.280;17.806;2022-11-20T13:51:48;0.70;99.90
35668;DHT22;22158;59.280;17.806;2022-11-20T13:59:59;0.70;99.90
35668;DHT22;22158;59.280;17.806;2022-11-20T14:02:27;0.70;99.90
35668;DHT22;22158;59.280;17.806;2022-11-20T14:04:58;0.70;99.90
35668;DHT22;22158;59.280;17.806;2022-11-20T14:07:27;0.70;99.90
35668;DHT22;22158;59.280;17.806;2022-11-20T14:09:57;0.70;99.90
35668;DHT22;22158;59.280;17.806;2022-11-20T14:12:28;0.70;99.90
35668;DHT22;22158;59.280;17.806;2022-11-20T14:14:54;0.60;99.90
35668;DHT22;22158;59.280;17.806;2022-11-20T14:17:24;0.60;99.90
35668;DHT22;22158;59.280;17.806;2022-11-20T14:19:56;0.60;99.90
35668;DHT22;22158;59.280;17.806;2022-11-20T14:22:25;0.50;99.90
35668;DHT22;22158;59.280;17.806;2022-11-20T14:27:38;0.40;99.90
35668;DHT22;22158;59.280;17.806;2022-11-20T14:30:06;0.40;99.90
35668;DHT22;22158;59.280;17.806;2022-11-20T14:32:37;0.40;99.90
35668;DHT22;22158;59.280;17.806;2022-11-20T14:35:08;0.40;99.90
35668;DHT22;22158;59.280;17.806;2022-11-20T14:37:37;0.40;99.90
35668;DHT22;22158;59.280;17.806;2022-11-20T14:40:25;0.40;99.90
35668;DHT22;22158;59.280;17.806;2022-11-20T14:42:51;0.40;99.90
35668;DHT22;22158;59.280;17.806;2022-11-20T14:45:17;0.40;99.90
35668;DHT22;22158;59.280;17.806;2022-11-20T14:47:44;0.30;99.90
35668;DHT22;22158;59.280;17.806;2022-11-20T14:50:16;0.30;99.90
35668;DHT22;22158;59.280;17.806;2022-11-20T14:52:57;0.20;99.90
35668;DHT22;22158;59.280;17.806;2022-11-20T14:55:41;0.20;99.90
35668;DHT22;22158;59.280;17.806;2022-11-20T14:58:24;0.20;99.90
35668;DHT22;22158;59.280;17.806;2022-11-20T15:00:59;0.10;99.90
35668;DHT22;22158;59.280;17.806;2022-11-20T15:03:38;0.10;99.90
35668;DHT22;22158;59.280;17.806;2022-11-20T15:06:06;0.10;99.90
35668;DHT22;22158;59.280;17.806;2022-11-20T15:08:34;0.10;99.90
35668;DHT22;22158;59.280;17.806;2022-11-20T15:10:59;0.10;99.90
35668;DHT22;22158;59.280;17.806;2022-11-20T15:13:31;0.10;99.90
35668;DHT22;22158;59.280;17.806;2022-11-20T15:15:59;0.10;99.90
35668;DHT22;22158;59.280;17.806;2022-11-20T15:18:32;0.10;99.90
35668;DHT22;22158;59.280;17.806;2022-11-20T15:21:03;0.10;99.90
35668;DHT22;22158;59.280;17.806;2022-11-20T15:23:29;0.10;99.90
35668;DHT22;22158;59.280;17.806;2022-11-20T15:25:55;0.10;99.90
35668;DHT22;22158;59.280;17.806;2022-11-20T15:28:31;0.10;99.90
35668;DHT22;22158;59.280;17.806;2022-11-20T15:30:57;0.00;99.90
35668;DHT22;22158;59.280;17.806;2022-11-20T15:33:23;0.00;99.90
35668;DHT22;22158;59.280;17.806;2022-11-20T15:35:49;0.00;99.90
35668;DHT22;22158;59.280;17.806;2022-11-20T15:38:14;0.00;99.90
35668;DHT22;22158;59.280;17.806;2022-11-20T15:40:40;0.00;99.90
35668;DHT22;22158;59.280;17.806;2022-11-20T15:43:06;0.00;99.90
35668;DHT22;22158;59.280;17.806;2022-11-20T15:48:09;0.00;99.90
35668;DHT22;22158;59.280;17.806;2022-11-20T15:50:38;0.00;99.90
35668;DHT22;22158;59.280;17.806;2022-11-20T15:53:04;0.00;99.90
35668;DHT22;22158;59.280;17.806;2022-11-20T15:55:30;0.00;99.90
35668;DHT22;22158;59.280;17.806;2022-11-20T15:57:56;-0.10;99.90
35668;DHT22;22158;59.280;17.806;2022-11-20T16:00:22;-0.10;99.90
35668;DHT22;22158;59.280;17.806;2022-11-20T16:02:48;-0.10;99.90
35668;DHT22;22158;59.280;17.806;2022-11-20T16:05:15;-0.20;99.90
35668;DHT22;22158;59.280;17.806;2022-11-20T16:07:40;-0.20;99.90
35668;DHT22;22158;59.280;17.806;2022-11-20T16:10:06;-0.20;99.90
35668;DHT22;22158;59.280;17.806;2022-11-20T16:12:32;-0.20;99.90
35668;DHT22;22158;59.280;17.806;2022-11-20T16:15:16;-0.20;99.90
35668;DHT22;22158;59.280;17.806;2022-11-20T16:18:01;-0.30;99.90
35668;DHT22;22158;59.280;17.806;2022-11-20T16:20:26;-0.30;99.90
35668;DHT22;22158;59.280;17.806;2022-11-20T16:22:52;-0.30;99.90
35668;DHT22;22158;59.280;17.806;2022-11-20T16:25:18;-0.30;99.90
35668;DHT22;22158;59.280;17.806;2022-11-20T16:27:43;-0.30;99.90
35668;DHT22;22158;59.280;17.806;2022-11-20T16:30:09;-0.30;99.90
35668;DHT22;22158;59.280;17.806;2022-11-20T16:32:35;-0.30;99.90
35668;DHT22;22158;59.280;17.806;2022-11-20T16:35:01;-0.20;99.90
35668;DHT22;22158;59.280;17.806;2022-11-20T16:37:27;-0.30;99.90
35668;DHT22;22158;59.280;17.806;2022-11-20T16:39:53;-0.30;99.90
35668;DHT22;22158;59.280;17.806;2022-11-20T16:42:19;-0.30;99.90
35668;DHT22;22158;59.280;17.806;2022-11-20T16:44:45;-0.30;99.90
35668;DHT22;22158;59.280;17.806;2022-11-20T16:47:12;-0.30;99.90
35668;DHT22;22158;59.280;17.806;2022-11-20T16:49:37;-0.30;99.90
35668;DHT22;22158;59.280;17.806;2022-11-20T16:52:03;-0.30;99.90
35668;DHT22;22158;59.280;17.806;2022-11-20T16:54:29;-0.30;99.90
35668;DHT22;22158;59.280;17.806;2022-11-20T16:56:54;-0.30;99.90
35668;DHT22;22158;59.280;17.806;2022-11-20T16:59:20;-0.30;99.90
35668;DHT22;22158;59.280;17.806;2022-11-20T17:01:46;-0.20;99.90
35668;DHT22;22158;59.280;17.806;2022-11-20T17:04:11;-0.20;99.90
35668;DHT22;22158;59.280;17.806;2022-11-20T17:06:39;-0.30;99.90
35668;DHT22;22158;59.280;17.806;2022-11-20T17:09:05;-0.30;99.90
35668;DHT22;22158;59.280;17.806;2022-11-20T17:11:34;-0.30;99.90
35668;DHT22;22158;59.280;17.806;2022-11-20T17:14:00;-0.30;99.90
35668;DHT22;22158;59.280;17.806;2022-11-20T17:16:32;-0.40;99.90
35668;DHT22;22158;59.280;17.806;2022-11-20T17:18:58;-0.40;99.90
35668;DHT22;22158;59.280;17.806;2022-11-20T17:21:25;-0.40;99.90
35668;DHT22;22158;59.280;17.806;2022-11-20T17:23:51;-0.30;99.90
35668;DHT22;22158;59.280;17.806;2022-11-20T17:26:19;-0.30;99.90
35668;DHT22;22158;59.280;17.806;2022-11-20T17:28:52;-0.30;99.90
35668;DHT22;22158;59.280;17.806;2022-11-20T17:31:18;-0.30;99.90